sensor_id;sensor_type;location;lat;lon;timestamp;pressure;altitude;pressure_sealevel;temperature;humidity
43621;BME280;29213;50.770;7.298;2023-04-20T00:01:52;101174.84;;;3.84;46.96
43621;BME280;29213;50.770;7.298;2023-04-20T00:04:18;101036.28;;;3.04;46.89
43621;BME280;29213;50.770;7.298;2023-04-20T00:06:43;101233.47;;;4.27;47.03
43621;BME280;29213;50.770;7.298;2023-04-20T00:09:11;101168.41;;;3.88;46.96
43621;BME280;29213;50.770;7.298;2023-04-20T00:11:37;101195.38;;;4.05;47.02
43621;BME280;29213;50.770;7.298;2023-04-20T00:14:02;101132.34;;;3.63;47.41
43621;BME280;29213;50.770;7.298;2023-04-20T00:16:28;101123.00;;;3.59;47.55
43621;BME280;29213;50.770;7.298;2023-04-20T00:18:54;101126.47;;;3.59;47.49
43621;BME280;29213;50.770;7.298;2023-04-20T00:21:19;101071.34;;;3.17;47.41
43621;BME280;29213;50.770;7.298;2023-04-20T00:23:48;101161.88;;;3.81;47.60
43621;BME280;29213;50.770;7.298;2023-04-20T00:26:14;101188.44;;;4.04;47.69
43621;BME280;29213;50.770;7.298;2023-04-20T00:28:39;101067.13;;;3.28;47.63
43621;BME280;29213;50.770;7.298;2023-04-20T00:31:05;101100.00;;;3.48;47.41
43621;BME280;29213;50.770;7.298;2023-04-20T00:33:30;101016.88;;;2.92;47.96
43621;BME280;29213;50.770;7.298;2023-04-20T00:35:56;101122.44;;;3.67;47.63
43621;BME280;29213;50.770;7.298;2023-04-20T00:38:21;101122.44;;;3.67;48.02
43621;BME280;29213;50.770;7.298;2023-04-20T00:40:46;100983.72;;;2.89;47.98
43621;BME280;29213;50.770;7.298;2023-04-20T00:43:17;101160.59;;;4.00;48.21
43621;BME280;29213;50.770;7.298;2023-04-20T00:45:42;101088.31;;;3.52;48.14
43621;BME280;29213;50.770;7.298;2023-04-20T00:48:07;101093.91;;;3.60;48.24
43621;BME280;29213;50.770;7.298;2023-04-20T00:50:33;101156.28;;;3.99;47.78
43621;BME280;29213;50.770;7.298;2023-04-20T00:52:59;101125.94;;;3.80;48.04
43621;BME280;29213;50.770;7.298;2023-04-20T00:55:26;101041.44;;;3.31;47.86
43621;BME280;29213;50.770;7.298;2023-04-20T00:57:52;101129.94;;;3.86;47.94
43621;BME280;29213;50.770;7.298;2023-04-20T01:00:17;101099.16;;;3.73;47.95
43621;BME280;29213;50.770;7.298;2023-04-20T01:02:43;101010.47;;;3.22;48.12
43621;BME280;29213;50.770;7.298;2023-04-20T01:05:08;101057.16;;;3.59;48.28
43621;BME280;29213;50.770;7.298;2023-04-20T01:07:34;100957.41;;;2.89;48.07
43621;BME280;29213;50.770;7.298;2023-04-20T01:10:01;101132.66;;;4.10;48.04
43621;BME280;29213;50.770;7.298;2023-04-20T01:12:26;101117.50;;;4.01;48.41
43621;BME280;29213;50.770;7.298;2023-04-20T01:14:52;101124.19;;;4.18;48.16
43621;BME280;29213;50.770;7.298;2023-04-20T01:17:17;101151.19;;;4.22;48.52
43621;BME280;29213;50.770;7.298;2023-04-20T01:19:44;100969.63;;;3.29;48.51
43621;BME280;29213;50.770;7.298;2023-04-20T01:22:17;101067.53;;;3.86;48.61
43621;BME280;29213;50.770;7.298;2023-04-20T01:24:43;101055.00;;;3.77;48.43
43621;BME280;29213;50.770;7.298;2023-04-20T01:27:10;101037.00;;;3.71;48.44
43621;BME280;29213;50.770;7.298;2023-04-20T01:29:36;101060.34;;;3.88;48.38
43621;BME280;29213;50.770;7.298;2023-04-20T01:32:01;101117.44;;;4.27;48.18
43621;BME280;29213;50.770;7.298;2023-04-20T01:34:26;100943.50;;;3.26;48.22
43621;BME280;29213;50.770;7.298;2023-04-20T01:36:52;100940.66;;;3.29;48.00
43621;BME280;29213;50.770;7.298;2023-04-20T01:39:17;101106.25;;;4.36;48.38
43621;BME280;29213;50.770;7.298;2023-04-20T01:41:43;101107.91;;;4.37;48.48
43621;BME280;29213;50.770;7.298;2023-04-20T01:44:08;101104.13;;;4.41;48.54
43621;BME280;29213;50.770;7.298;2023-04-20T01:46:38;101097.03;;;4.42;48.24
43621;BME280;29213;50.770;7.298;2023-04-20T01:49:04;101010.41;;;3.87;48.06
43621;BME280;29213;50.770;7.298;2023-04-20T01:51:30;101053.75;;;4.20;48.23
43621;BME280;29213;50.770;7.298;2023-04-20T01:54:00;101034.59;;;4.05;48.26
43621;BME280;29213;50.770;7.298;2023-04-20T01:56:26;101013.00;;;4.00;48.39
43621;BME280;29213;50.770;7.298;2023-04-20T01:58:51;101078.97;;;4.49;48.91
43621;BME280;29213;50.770;7.298;2023-04-20T02:01:17;101022.88;;;4.09;48.50
43621;BME280;29213;50.770;7.298;2023-04-20T02:03:42;101023.19;;;4.18;48.49
43621;BME280;29213;50.770;7.298;2023-04-20T02:06:07;101010.56;;;4.10;48.56
43621;BME280;29213;50.770;7.298;2023-04-20T02:08:33;101009.88;;;4.19;49.29
43621;BME280;29213;50.770;7.298;2023-04-20T02:10:59;101059.44;;;4.51;48.80
43621;BME280;29213;50.770;7.298;2023-04-20T02:13:24;101043.34;;;4.43;49.19
43621;BME280;29213;50.770;7.298;2023-04-20T02:15:50;100918.34;;;3.72;49.21
43621;BME280;29213;50.770;7.298;2023-04-20T02:18:16;101053.75;;;4.58;49.73
43621;BME280;29213;50.770;7.298;2023-04-20T02:20:42;101022.84;;;4.47;49.73
43621;BME280;29213;50.770;7.298;2023-04-20T02:23:07;101020.94;;;4.49;49.47
43621;BME280;29213;50.770;7.298;2023-04-20T02:25:33;101058.75;;;4.74;49.51
43621;BME280;29213;50.770;7.298;2023-04-20T02:27:58;100999.22;;;4.45;49.66
43621;BME280;29213;50.770;7.298;2023-04-20T02:30:24;100917.00;;;3.91;49.41
43621;BME280;29213;50.770;7.298;2023-04-20T02:32:49;101049.13;;;4.73;49.62
43621;BME280;29213;50.770;7.298;2023-04-20T02:35:15;100991.16;;;4.35;49.34
43621;BME280;29213;50.770;7.298;2023-04-20T02:37:42;100972.66;;;4.24;48.96
43621;BME280;29213;50.770;7.298;2023-04-20T02:40:07;100973.63;;;4.34;48.90
43621;BME280;29213;50.770;7.298;2023-04-20T02:42:33;100869.25;;;3.71;49.03
43621;BME280;29213;50.770;7.298;2023-04-20T02:44:58;100976.75;;;4.39;48.80
43621;BME280;29213;50.770;7.298;2023-04-20T02:47:24;101027.06;;;4.74;49.54
43621;BME280;29213;50.770;7.298;2023-04-20T02:49:49;100980.88;;;4.43;49.65
43621;BME280;29213;50.770;7.298;2023-04-20T02:52:14;100974.78;;;4.43;49.01
43621;BME280;29213;50.770;7.298;2023-04-20T02:54:40;100949.19;;;4.32;49.48
43621;BME280;29213;50.770;7.298;2023-04-20T02:57:05;100969.03;;;4.49;49.78
43621;BME280;29213;50.770;7.298;2023-04-20T02:59:31;100959.06;;;4.41;49.52
43621;BME280;29213;50.770;7.298;2023-04-20T03:01:56;100811.13;;;3.61;50.21
43621;BME280;29213;50.770;7.298;2023-04-20T03:04:21;100962.59;;;4.53;49.89
43621;BME280;29213;50.770;7.298;2023-04-20T03:06:48;101008.50;;;4.87;50.15
43621;BME280;29213;50.770;7.298;2023-04-20T03:09:14;100831.06;;;3.77;50.42
43621;BME280;29213;50.770;7.298;2023-04-20T03:11:40;100955.41;;;4.55;49.89
43621;BME280;29213;50.770;7.298;2023-04-20T03:14:05;100935.06;;;4.45;49.42
43621;BME280;29213;50.770;7.298;2023-04-20T03:16:30;100919.22;;;4.33;49.32
43621;BME280;29213;50.770;7.298;2023-04-20T03:18:56;100945.41;;;4.48;50.17
43621;BME280;29213;50.770;7.298;2023-04-20T03:21:21;100929.19;;;4.41;50.07
43621;BME280;29213;50.770;7.298;2023-04-20T03:23:47;100961.19;;;4.61;50.12
43621;BME280;29213;50.770;7.298;2023-04-20T03:26:13;100930.53;;;4.47;49.67
43621;BME280;29213;50.770;7.298;2023-04-20T03:28:40;101001.44;;;4.87;49.33
43621;BME280;29213;50.770;7.298;2023-04-20T03:31:06;100935.22;;;4.43;49.66
43621;BME280;29213;50.770;7.298;2023-04-20T03:33:31;100933.41;;;4.43;50.10
43621;BME280;29213;50.770;7.298;2023-04-20T03:35:57;100823.44;;;3.85;49.90
43621;BME280;29213;50.770;7.298;2023-04-20T03:38:22;100937.78;;;4.56;49.90
43621;BME280;29213;50.770;7.298;2023-04-20T03:40:47;100933.25;;;4.58;49.89
43621;BME280;29213;50.770;7.298;2023-04-20T03:43:13;100995.47;;;4.97;50.12
43621;BME280;29213;50.770;7.298;2023-04-20T03:45:38;100892.84;;;4.33;50.09
43621;BME280;29213;50.770;7.298;2023-04-20T03:48:04;100900.28;;;4.39;50.66
43621;BME280;29213;50.770;7.298;2023-04-20T03:50:29;101006.28;;;5.05;50.42
43621;BME280;29213;50.770;7.298;2023-04-20T03:52:54;100935.41;;;4.64;51.03
43621;BME280;29213;50.770;7.298;2023-04-20T03:55:20;100980.44;;;4.86;51.29
43621;BME280;29213;50.770;7.298;2023-04-20T03:57:45;100933.84;;;4.62;51.43
43621;BME280;29213;50.770;7.298;2023-04-20T04:00:11;100937.94;;;4.66;51.20
43621;BME280;29213;50.770;7.298;2023-04-20T04:02:37;100921.38;;;4.64;51.38
43621;BME280;29213;50.770;7.298;2023-04-20T04:05:03;100980.34;;;5.10;51.43
43621;BME280;29213;50.770;7.298;2023-04-20T04:07:28;100892.22;;;4.54;51.82
43621;BME280;29213;50.770;7.298;2023-04-20T04:09:53;100823.53;;;4.20;52.01
43621;BME280;29213;50.770;7.298;2023-04-20T04:12:19;100844.41;;;4.34;51.58
43621;BME280;29213;50.770;7.298;2023-04-20T04:14:44;100912.56;;;4.88;51.70
43621;BME280;29213;50.770;7.298;2023-04-20T04:17:10;100919.63;;;4.99;51.39
43621;BME280;29213;50.770;7.298;2023-04-20T04:19:35;100832.94;;;4.47;51.09
43621;BME280;29213;50.770;7.298;2023-04-20T04:22:00;100935.84;;;5.17;51.48
43621;BME280;29213;50.770;7.298;2023-04-20T04:24:26;100843.78;;;4.66;52.14
43621;BME280;29213;50.770;7.298;2023-04-20T04:26:52;100981.13;;;5.46;51.66
43621;BME280;29213;50.770;7.298;2023-04-20T04:29:23;100924.06;;;5.09;52.02
43621;BME280;29213;50.770;7.298;2023-04-20T04:31:51;100886.75;;;4.91;52.27
43621;BME280;29213;50.770;7.298;2023-04-20T04:34:16;100948.94;;;5.30;52.50
43621;BME280;29213;50.770;7.298;2023-04-20T04:36:43;100937.53;;;5.29;51.94
43621;BME280;29213;50.770;7.298;2023-04-20T04:39:08;100909.66;;;5.14;51.77
43621;BME280;29213;50.770;7.298;2023-04-20T04:41:34;100831.31;;;4.68;51.98
43621;BME280;29213;50.770;7.298;2023-04-20T04:44:00;100889.16;;;5.06;52.57
43621;BME280;29213;50.770;7.298;2023-04-20T04:46:27;100944.09;;;5.35;52.78
43621;BME280;29213;50.770;7.298;2023-04-20T04:48:53;100901.53;;;5.17;52.58
43621;BME280;29213;50.770;7.298;2023-04-20T04:51:18;100852.94;;;4.97;51.90
43621;BME280;29213;50.770;7.298;2023-04-20T04:53:43;100898.97;;;5.27;52.61
43621;BME280;29213;50.770;7.298;2023-04-20T04:56:11;100898.88;;;5.28;52.38
43621;BME280;29213;50.770;7.298;2023-04-20T04:58:37;100937.38;;;5.54;52.58
43621;BME280;29213;50.770;7.298;2023-04-20T05:01:03;100795.81;;;4.73;52.66
43621;BME280;29213;50.770;7.298;2023-04-20T05:03:28;100798.81;;;4.68;53.23
43621;BME280;29213;50.770;7.298;2023-04-20T05:05:54;100935.94;;;5.61;53.34
43621;BME280;29213;50.770;7.298;2023-04-20T05:08:20;100953.31;;;5.75;53.31
43621;BME280;29213;50.770;7.298;2023-04-20T05:10:48;100778.78;;;4.65;52.89
43621;BME280;29213;50.770;7.298;2023-04-20T05:13:14;100792.09;;;4.75;52.97
43621;BME280;29213;50.770;7.298;2023-04-20T05:15:39;100803.72;;;4.84;52.55
43621;BME280;29213;50.770;7.298;2023-04-20T05:18:05;100883.00;;;5.40;51.15
43621;BME280;29213;50.770;7.298;2023-04-20T05:20:30;100907.47;;;5.53;51.07
43621;BME280;29213;50.770;7.298;2023-04-20T05:22:55;100893.19;;;5.44;51.19
43621;BME280;29213;50.770;7.298;2023-04-20T05:25:21;100897.28;;;5.48;51.68
43621;BME280;29213;50.770;7.298;2023-04-20T05:27:46;100876.16;;;5.37;51.66
43621;BME280;29213;50.770;7.298;2023-04-20T05:30:12;100891.72;;;5.52;52.57
43621;BME280;29213;50.770;7.298;2023-04-20T05:32:37;100916.44;;;5.73;52.56
43621;BME280;29213;50.770;7.298;2023-04-20T05:35:03;100902.53;;;5.60;51.69
43621;BME280;29213;50.770;7.298;2023-04-20T05:37:28;100907.72;;;5.61;52.24
43621;BME280;29213;50.770;7.298;2023-04-20T05:39:53;100920.16;;;5.71;52.69
43621;BME280;29213;50.770;7.298;2023-04-20T05:42:19;100926.66;;;5.78;53.00
43621;BME280;29213;50.770;7.298;2023-04-20T05:44:44;100960.88;;;5.91;53.84
43621;BME280;29213;50.770;7.298;2023-04-20T05:47:10;100880.34;;;5.51;53.71
43621;BME280;29213;50.770;7.298;2023-04-20T05:49:35;100847.94;;;5.38;54.32
43621;BME280;29213;50.770;7.298;2023-04-20T05:52:01;100896.19;;;5.62;53.76
43621;BME280;29213;50.770;7.298;2023-04-20T05:54:26;100830.31;;;5.27;52.60
43621;BME280;29213;50.770;7.298;2023-04-20T05:56:55;100940.16;;;5.96;52.32
43621;BME280;29213;50.770;7.298;2023-04-20T05:59:22;100892.44;;;5.65;52.72
43621;BME280;29213;50.770;7.298;2023-04-20T06:01:48;100940.63;;;6.01;57.24
43621;BME280;29213;50.770;7.298;2023-04-20T06:04:13;100970.81;;;6.86;59.84
43621;BME280;29213;50.770;7.298;2023-04-20T06:06:39;100869.97;;;6.89;58.78
43621;BME280;29213;50.770;7.298;2023-04-20T06:09:05;100880.16;;;7.34;53.19
43621;BME280;29213;50.770;7.298;2023-04-20T06:11:30;100812.50;;;6.79;52.18
43621;BME280;29213;50.770;7.298;2023-04-20T06:13:56;100876.47;;;7.06;51.77
43621;BME280;29213;50.770;7.298;2023-04-20T06:16:22;100807.22;;;6.48;51.47
43621;BME280;29213;50.770;7.298;2023-04-20T06:18:47;100928.16;;;7.10;51.92
43621;BME280;29213;50.770;7.298;2023-04-20T06:21:12;100878.97;;;7.07;51.89
43621;BME280;29213;50.770;7.298;2023-04-20T06:23:38;100908.09;;;7.07;50.52
43621;BME280;29213;50.770;7.298;2023-04-20T06:26:03;100880.66;;;6.77;50.90
43621;BME280;29213;50.770;7.298;2023-04-20T06:28:32;100888.25;;;6.71;51.29
43621;BME280;29213;50.770;7.298;2023-04-20T06:30:57;100822.03;;;6.18;50.87
43621;BME280;29213;50.770;7.298;2023-04-20T06:33:23;100818.47;;;6.19;51.59
43621;BME280;29213;50.770;7.298;2023-04-20T06:35:48;100960.63;;;7.02;51.76
43621;BME280;29213;50.770;7.298;2023-04-20T06:38:15;100884.66;;;6.50;51.08
43621;BME280;29213;50.770;7.298;2023-04-20T06:40:41;100899.91;;;6.58;52.14
43621;BME280;29213;50.770;7.298;2023-04-20T06:43:06;100932.63;;;6.78;52.13
43621;BME280;29213;50.770;7.298;2023-04-20T06:45:31;100867.22;;;6.26;51.88
43621;BME280;29213;50.770;7.298;2023-04-20T06:47:57;100890.97;;;6.16;52.26
43621;BME280;29213;50.770;7.298;2023-04-20T06:50:22;100894.31;;;6.19;51.79
43621;BME280;29213;50.770;7.298;2023-04-20T06:52:48;100925.88;;;6.32;52.51
43621;BME280;29213;50.770;7.298;2023-04-20T06:55:13;100938.59;;;6.38;52.79
43621;BME280;29213;50.770;7.298;2023-04-20T06:57:38;100902.47;;;6.15;53.54
43621;BME280;29213;50.770;7.298;2023-04-20T07:00:08;100688.94;;;4.78;53.05
43621;BME280;29213;50.770;7.298;2023-04-20T07:02:41;100833.28;;;5.78;53.61
43621;BME280;29213;50.770;7.298;2023-04-20T07:05:07;100866.66;;;5.90;53.13
43621;BME280;29213;50.770;7.298;2023-04-20T07:07:33;100772.06;;;5.40;52.89
43621;BME280;29213;50.770;7.298;2023-04-20T07:09:58;100813.50;;;5.72;53.99
43621;BME280;29213;50.770;7.298;2023-04-20T07:12:23;100943.00;;;6.49;53.99
43621;BME280;29213;50.770;7.298;2023-04-20T07:14:49;100892.00;;;6.25;54.18
43621;BME280;29213;50.770;7.298;2023-04-20T07:17:14;100887.81;;;6.23;54.58
43621;BME280;29213;50.770;7.298;2023-04-20T07:19:40;100916.69;;;6.36;54.53
43621;BME280;29213;50.770;7.298;2023-04-20T07:22:05;100705.16;;;5.18;54.52
43621;BME280;29213;50.770;7.298;2023-04-20T07:24:30;100870.09;;;6.23;54.70
43621;BME280;29213;50.770;7.298;2023-04-20T07:26:56;100924.56;;;6.59;54.84
43621;BME280;29213;50.770;7.298;2023-04-20T07:29:21;100863.19;;;6.11;55.03
43621;BME280;29213;50.770;7.298;2023-04-20T07:31:47;100767.44;;;5.53;54.87
43621;BME280;29213;50.770;7.298;2023-04-20T07:34:12;100856.38;;;6.08;54.81
43621;BME280;29213;50.770;7.298;2023-04-20T07:36:37;100889.59;;;6.22;54.43
43621;BME280;29213;50.770;7.298;2023-04-20T07:39:03;100891.03;;;6.26;54.58
43621;BME280;29213;50.770;7.298;2023-04-20T07:41:29;100904.78;;;6.41;55.04
43621;BME280;29213;50.770;7.298;2023-04-20T07:43:55;100884.38;;;6.32;54.19
43621;BME280;29213;50.770;7.298;2023-04-20T07:46:21;100943.47;;;6.75;55.02
43621;BME280;29213;50.770;7.298;2023-04-20T07:48:47;100861.53;;;6.31;54.79
43621;BME280;29213;50.770;7.298;2023-04-20T07:51:12;100791.69;;;5.91;54.71
43621;BME280;29213;50.770;7.298;2023-04-20T07:53:38;100810.88;;;6.14;54.89
43621;BME280;29213;50.770;7.298;2023-04-20T07:56:03;100871.88;;;6.55;54.96
43621;BME280;29213;50.770;7.298;2023-04-20T07:58:29;100932.84;;;6.96;55.49
43621;BME280;29213;50.770;7.298;2023-04-20T08:00:54;100805.94;;;6.21;55.50
43621;BME280;29213;50.770;7.298;2023-04-20T08:03:19;100782.66;;;6.15;55.55
43621;BME280;29213;50.770;7.298;2023-04-20T08:05:45;100877.03;;;6.78;56.17
43621;BME280;29213;50.770;7.298;2023-04-20T08:08:10;100858.50;;;6.78;55.61
43621;BME280;29213;50.770;7.298;2023-04-20T08:10:36;100843.13;;;6.72;55.40
43621;BME280;29213;50.770;7.298;2023-04-20T08:13:01;100856.13;;;6.75;55.37
43621;BME280;29213;50.770;7.298;2023-04-20T08:15:27;100776.84;;;6.21;54.82
43621;BME280;29213;50.770;7.298;2023-04-20T08:17:52;100811.78;;;6.25;55.69
43621;BME280;29213;50.770;7.298;2023-04-20T08:20:18;100893.47;;;6.51;56.04
43621;BME280;29213;50.770;7.298;2023-04-20T08:22:43;100935.91;;;6.71;57.03
43621;BME280;29213;50.770;7.298;2023-04-20T08:25:09;100783.94;;;5.78;56.73
43621;BME280;29213;50.770;7.298;2023-04-20T08:27:34;100825.03;;;6.03;56.20
43621;BME280;29213;50.770;7.298;2023-04-20T08:30:00;100879.25;;;5.98;55.97
43621;BME280;29213;50.770;7.298;2023-04-20T08:32:26;100906.47;;;5.66;56.43
43621;BME280;29213;50.770;7.298;2023-04-20T08:34:52;100739.22;;;4.65;57.46
43621;BME280;29213;50.770;7.298;2023-04-20T08:37:18;100901.78;;;5.81;57.61
43621;BME280;29213;50.770;7.298;2023-04-20T08:39:44;100929.41;;;5.76;57.54
43621;BME280;29213;50.770;7.298;2023-04-20T08:42:10;100892.19;;;5.68;57.55
43621;BME280;29213;50.770;7.298;2023-04-20T08:44:35;100818.16;;;5.47;57.50
43621;BME280;29213;50.770;7.298;2023-04-20T08:47:02;100898.28;;;6.13;57.22
43621;BME280;29213;50.770;7.298;2023-04-20T08:49:27;100902.03;;;5.66;56.25
43621;BME280;29213;50.770;7.298;2023-04-20T08:51:57;100834.53;;;5.29;57.04
43621;BME280;29213;50.770;7.298;2023-04-20T08:54:22;100888.81;;;5.78;57.17
43621;BME280;29213;50.770;7.298;2023-04-20T08:56:47;100844.88;;;5.65;57.27
43621;BME280;29213;50.770;7.298;2023-04-20T08:59:14;100924.25;;;6.19;56.58
43621;BME280;29213;50.770;7.298;2023-04-20T09:01:41;100918.63;;;6.34;56.20
43621;BME280;29213;50.770;7.298;2023-04-20T09:04:25;100916.56;;;6.16;55.66
43621;BME280;29213;50.770;7.298;2023-04-20T09:06:53;100915.34;;;6.20;56.17
43621;BME280;29213;50.770;7.298;2023-04-20T09:09:21;100910.91;;;6.42;56.14
43621;BME280;29213;50.770;7.298;2023-04-20T09:11:47;100895.34;;;6.27;55.38
43621;BME280;29213;50.770;7.298;2023-04-20T09:14:14;100761.06;;;5.56;55.72
43621;BME280;29213;50.770;7.298;2023-04-20T09:16:54;100914.66;;;6.39;55.58
43621;BME280;29213;50.770;7.298;2023-04-20T09:19:30;100856.00;;;5.80;56.07
43621;BME280;29213;50.770;7.298;2023-04-20T09:21:58;100841.72;;;5.71;55.57
43621;BME280;29213;50.770;7.298;2023-04-20T09:24:35;100841.09;;;5.79;55.88
43621;BME280;29213;50.770;7.298;2023-04-20T09:27:17;100904.63;;;6.22;55.69
43621;BME280;29213;50.770;7.298;2023-04-20T09:29:43;100902.56;;;6.25;55.99
43621;BME280;29213;50.770;7.298;2023-04-20T09:32:23;100855.72;;;6.16;56.06
43621;BME280;29213;50.770;7.298;2023-04-20T09:34:48;100755.56;;;5.80;55.76
43621;BME280;29213;50.770;7.298;2023-04-20T09:37:14;100902.97;;;6.85;53.90
43621;BME280;29213;50.770;7.298;2023-04-20T09:39:42;100902.84;;;6.86;52.84
43621;BME280;29213;50.770;7.298;2023-04-20T09:42:10;100910.38;;;6.91;53.51
43621;BME280;29213;50.770;7.298;2023-04-20T09:44:37;100910.63;;;6.78;53.48
43621;BME280;29213;50.770;7.298;2023-04-20T09:47:03;100893.44;;;6.72;54.11
43621;BME280;29213;50.770;7.298;2023-04-20T09:49:28;100819.63;;;6.05;52.92
43621;BME280;29213;50.770;7.298;2023-04-20T09:51:54;100893.97;;;6.45;53.42
43621;BME280;29213;50.770;7.298;2023-04-20T09:54:21;100572.81;;;4.46;52.93
43621;BME280;29213;50.770;7.298;2023-04-20T09:56:47;100903.41;;;6.59;53.00
43621;BME280;29213;50.770;7.298;2023-04-20T09:59:13;100747.44;;;5.72;53.12
43621;BME280;29213;50.770;7.298;2023-04-20T10:01:40;100755.91;;;5.87;52.90
43621;BME280;29213;50.770;7.298;2023-04-20T10:04:06;100846.34;;;6.76;52.85
43621;BME280;29213;50.770;7.298;2023-04-20T10:06:35;100832.50;;;6.62;51.51
43621;BME280;29213;50.770;7.298;2023-04-20T10:09:03;100907.72;;;6.91;51.41
43621;BME280;29213;50.770;7.298;2023-04-20T10:11:33;100902.44;;;6.91;51.12
43621;BME280;29213;50.770;7.298;2023-04-20T10:14:01;100878.97;;;6.76;52.61
43621;BME280;29213;50.770;7.298;2023-04-20T10:16:38;100903.50;;;7.09;52.03
43621;BME280;29213;50.770;7.298;2023-04-20T10:19:04;100891.06;;;7.31;51.20
43621;BME280;29213;50.770;7.298;2023-04-20T10:21:30;100598.47;;;5.52;50.10
43621;BME280;29213;50.770;7.298;2023-04-20T10:24:00;100753.88;;;6.43;49.76
43621;BME280;29213;50.770;7.298;2023-04-20T10:26:41;100857.50;;;6.79;49.42
43621;BME280;29213;50.770;7.298;2023-04-20T10:29:07;100827.25;;;6.72;50.42
43621;BME280;29213;50.770;7.298;2023-04-20T10:31:39;100855.31;;;6.85;49.75
43621;BME280;29213;50.770;7.298;2023-04-20T10:34:06;100894.69;;;6.99;49.71
43621;BME280;29213;50.770;7.298;2023-04-20T10:36:36;100900.50;;;6.93;50.19
43621;BME280;29213;50.770;7.298;2023-04-20T10:39:12;100806.78;;;6.43;49.83
43621;BME280;29213;50.770;7.298;2023-04-20T10:41:50;100860.94;;;7.01;50.78
43621;BME280;29213;50.770;7.298;2023-04-20T10:44:16;100865.81;;;7.37;50.52
43621;BME280;29213;50.770;7.298;2023-04-20T10:46:41;100812.84;;;6.96;49.80
43621;BME280;29213;50.770;7.298;2023-04-20T10:49:07;100838.31;;;6.87;49.62
43621;BME280;29213;50.770;7.298;2023-04-20T10:51:33;100863.59;;;7.01;50.20
43621;BME280;29213;50.770;7.298;2023-04-20T10:54:03;100896.44;;;7.20;51.67
43621;BME280;29213;50.770;7.298;2023-04-20T10:56:55;100894.66;;;7.30;52.56
43621;BME280;29213;50.770;7.298;2023-04-20T10:59:22;100884.31;;;7.17;51.50
43621;BME280;29213;50.770;7.298;2023-04-20T11:01:48;100869.97;;;6.89;51.05
43621;BME280;29213;50.770;7.298;2023-04-20T11:04:15;100793.28;;;6.77;51.53
43621;BME280;29213;50.770;7.298;2023-04-20T11:06:42;100811.69;;;7.30;51.98
43621;BME280;29213;50.770;7.298;2023-04-20T11:09:24;100896.91;;;8.15;50.54
43621;BME280;29213;50.770;7.298;2023-04-20T11:12:06;100882.66;;;8.26;49.92
43621;BME280;29213;50.770;7.298;2023-04-20T11:14:34;100887.94;;;8.46;49.26
43621;BME280;29213;50.770;7.298;2023-04-20T11:17:01;100868.38;;;8.37;48.01
43621;BME280;29213;50.770;7.298;2023-04-20T11:19:31;100866.56;;;8.38;47.85
43621;BME280;29213;50.770;7.298;2023-04-20T11:21:57;100797.88;;;8.25;48.14
43621;BME280;29213;50.770;7.298;2023-04-20T11:24:25;100872.22;;;8.73;47.08
43621;BME280;29213;50.770;7.298;2023-04-20T11:26:52;100745.84;;;7.84;47.92
43621;BME280;29213;50.770;7.298;2023-04-20T11:29:28;100871.06;;;8.27;47.35
43621;BME280;29213;50.770;7.298;2023-04-20T11:31:54;100799.84;;;7.63;48.35
43621;BME280;29213;50.770;7.298;2023-04-20T11:34:21;100869.78;;;8.02;48.85
43621;BME280;29213;50.770;7.298;2023-04-20T11:36:47;100867.28;;;7.81;47.63
43621;BME280;29213;50.770;7.298;2023-04-20T11:39:27;100773.88;;;7.18;48.43
43621;BME280;29213;50.770;7.298;2023-04-20T11:41:54;100733.69;;;6.93;47.97
43621;BME280;29213;50.770;7.298;2023-04-20T11:44:21;100831.28;;;7.68;48.49
43621;BME280;29213;50.770;7.298;2023-04-20T11:46:47;100527.28;;;5.81;47.69
43621;BME280;29213;50.770;7.298;2023-04-20T11:49:18;100841.31;;;7.94;48.46
43621;BME280;29213;50.770;7.298;2023-04-20T11:51:45;100815.47;;;8.26;52.17
43621;BME280;29213;50.770;7.298;2023-04-20T11:54:14;100861.97;;;8.88;47.39
43621;BME280;29213;50.770;7.298;2023-04-20T11:56:40;100861.59;;;8.73;46.58
43621;BME280;29213;50.770;7.298;2023-04-20T11:59:09;100807.03;;;8.50;46.20
43621;BME280;29213;50.770;7.298;2023-04-20T12:01:35;100867.63;;;9.03;46.14
43621;BME280;29213;50.770;7.298;2023-04-20T12:04:02;100822.81;;;8.90;45.12
43621;BME280;29213;50.770;7.298;2023-04-20T12:06:28;100852.59;;;9.40;45.36
43621;BME280;29213;50.770;7.298;2023-04-20T12:08:54;100843.44;;;9.52;44.91
43621;BME280;29213;50.770;7.298;2023-04-20T12:11:21;100695.53;;;8.50;44.55
43621;BME280;29213;50.770;7.298;2023-04-20T12:13:46;100790.69;;;9.11;44.77
43621;BME280;29213;50.770;7.298;2023-04-20T12:16:11;100847.28;;;9.21;44.07
43621;BME280;29213;50.770;7.298;2023-04-20T12:18:37;100847.75;;;9.35;43.78
43621;BME280;29213;50.770;7.298;2023-04-20T12:21:03;100795.22;;;9.01;42.82
43621;BME280;29213;50.770;7.298;2023-04-20T12:23:28;100787.56;;;9.16;44.12
43621;BME280;29213;50.770;7.298;2023-04-20T12:25:53;100745.53;;;9.47;42.60
43621;BME280;29213;50.770;7.298;2023-04-20T12:28:19;100810.16;;;10.55;42.73
43621;BME280;29213;50.770;7.298;2023-04-20T12:30:44;100741.59;;;10.57;41.68
43621;BME280;29213;50.770;7.298;2023-04-20T12:33:10;100819.69;;;11.53;40.35
43621;BME280;29213;50.770;7.298;2023-04-20T12:35:35;100801.66;;;11.46;39.29
43621;BME280;29213;50.770;7.298;2023-04-20T12:38:01;100761.06;;;10.93;38.91
43621;BME280;29213;50.770;7.298;2023-04-20T12:40:26;100797.31;;;11.29;38.75
43621;BME280;29213;50.770;7.298;2023-04-20T12:42:52;100791.59;;;10.72;39.02
43621;BME280;29213;50.770;7.298;2023-04-20T12:45:17;100816.66;;;10.88;39.53
43621;BME280;29213;50.770;7.298;2023-04-20T12:47:43;100774.44;;;11.01;38.35
43621;BME280;29213;50.770;7.298;2023-04-20T12:50:08;100783.66;;;11.40;39.71
43621;BME280;29213;50.770;7.298;2023-04-20T12:52:34;100732.81;;;11.25;38.18
43621;BME280;29213;50.770;7.298;2023-04-20T12:55:00;100625.53;;;11.06;39.45
43621;BME280;29213;50.770;7.298;2023-04-20T12:57:28;100728.66;;;11.89;39.10